Time;durP1;ratioP1;P1;durP2;ratioP2;P2;SDS_P1;SDS_P2;PMS_P1;PMS_P2;Temp;Humidity;BMP_temperature;BMP_pressure;BME280_temperature;BME280_humidity;BME280_pressure;Samples;Min_cycle;Max_cycle;Signal;HPM_P1;HPM_P2
2022/06/11 00:07:19;;;;;;;8.63;3.22;;;;;;;21.67;59.01;100553.66;18417259;32;20093;-67
2022/06/11 00:17:25;;;;;;;10.18;4.15;;;;;;;21.49;59.67;100546.47;18417686;32;20107;-67
2022/06/11 00:27:29;;;;;;;8.23;3.60;;;;;;;20.91;61.29;100557.88;18417572;32;20427;-67
2022/06/11 00:37:34;;;;;;;7.37;3.55;;;;;;;20.97;60.41;100559.44;18416678;32;20093;-67
2022/06/11 00:47:37;;;;;;;8.40;3.33;;;;;;;21.02;59.40;100557.41;18415786;32;20174;-67
2022/06/11 00:57:45;;;;;;;7.65;3.25;;;;;;;21.34;57.69;100573.69;18415389;32;20093;-67
2022/06/11 01:08:14;;;;;;;8.73;3.53;;;;;;;21.54;56.55;100564.00;18414731;32;20432;-67
2022/06/11 01:18:27;;;;;;;8.45;3.67;;;;;;;21.73;56.60;100559.59;18420981;32;20093;-67
2022/06/11 01:28:42;;;;;;;8.60;3.60;;;;;;;21.23;58.18;100575.97;18424531;32;20104;-67
2022/06/11 01:38:48;;;;;;;9.25;4.15;;;;;;;20.76;60.43;100577.94;18424163;32;20141;-67
2022/06/11 01:48:54;;;;;;;9.77;4.00;;;;;;;20.39;62.17;100575.03;18423844;32;20118;-67
2022/06/11 01:59:39;;;;;;;8.57;3.90;;;;;;;20.38;63.02;100590.06;18423577;32;20097;-67
2022/06/11 02:09:50;;;;;;;7.07;3.47;;;;;;;20.26;62.61;100587.91;18486790;32;20128;-67
2022/06/11 02:19:59;;;;;;;6.30;3.27;;;;;;;19.74;65.70;100594.28;18294711;32;20563;-67
2022/06/11 02:30:04;;;;;;;8.65;3.80;;;;;;;19.31;68.34;100609.94;18310184;32;20203;-67
2022/06/11 02:40:12;;;;;;;8.45;3.95;;;;;;;18.98;69.52;100613.69;18453438;32;20093;-67
2022/06/11 02:50:20;;;;;;;9.13;4.10;;;;;;;18.82;70.10;100626.53;18421593;32;20092;-67
2022/06/11 03:00:28;;;;;;;10.23;4.43;;;;;;;18.49;71.25;100623.19;18421229;32;20103;-67
2022/06/11 03:10:32;;;;;;;10.30;3.95;;;;;;;17.99;72.16;100624.69;18420341;31;20108;-67
2022/06/11 03:20:37;;;;;;;10.13;3.62;;;;;;;18.09;71.59;100646.44;18420435;32;20082;-67
2022/06/11 03:30:40;;;;;;;8.68;3.70;;;;;;;18.23;72.20;100651.31;18421159;32;20119;-67
2022/06/11 03:40:51;;;;;;;9.10;4.03;;;;;;;18.32;71.67;100666.03;18418893;32;20178;-67
2022/06/11 03:50:54;;;;;;;9.73;4.25;;;;;;;18.09;73.46;100672.88;18418987;32;20093;-67
2022/06/11 04:01:18;;;;;;;9.65;4.40;;;;;;;18.43;73.61;100675.34;18418498;32;20093;-67
2022/06/11 04:11:22;;;;;;;9.90;4.75;;;;;;;18.95;71.75;100653.44;18444772;31;20382;-67
2022/06/11 04:21:28;;;;;;;9.63;4.35;;;;;;;19.65;70.90;100655.53;18417837;32;20372;-67
2022/06/11 04:31:33;;;;;;;6.93;3.55;;;;;;;20.76;66.77;100650.44;18416935;32;20105;-67
2022/06/11 04:41:46;;;;;;;9.05;3.58;;;;;;;23.34;58.63;100637.84;18416196;32;20085;-67
2022/06/11 04:51:49;;;;;;;6.65;3.40;;;;;;;24.22;53.13;100648.25;18420683;32;20123;-67
2022/06/11 05:01:54;;;;;;;8.55;3.58;;;;;;;25.85;47.86;100663.78;18415541;32;20089;-68
2022/06/11 05:11:58;;;;;;;5.85;3.33;;;;;;;25.37;47.71;100678.19;18387528;31;20135;-67
2022/06/11 05:22:03;;;;;;;8.10;3.95;;;;;;;25.33;46.50;100682.00;18363001;32;20144;-67
2022/06/11 05:32:07;;;;;;;6.18;3.17;;;;;;;25.08;46.97;100676.31;18360291;32;20085;-67
2022/06/11 05:42:12;;;;;;;8.25;3.87;;;;;;;24.26;50.08;100686.28;18359285;32;20081;-67
2022/06/11 05:52:17;;;;;;;6.95;3.58;;;;;;;23.45;51.95;100689.69;18358531;32;20141;-67
2022/06/11 06:02:24;;;;;;;7.90;3.60;;;;;;;24.38;49.92;100680.25;18394482;32;20108;-67
2022/06/11 06:12:31;;;;;;;6.40;3.53;;;;;;;23.85;52.13;100682.25;18421776;32;20096;-67
2022/06/11 06:22:36;;;;;;;7.03;3.33;;;;;;;24.03;51.14;100685.69;18417558;32;20105;-67
2022/06/11 06:32:39;;;;;;;7.78;3.55;;;;;;;24.33;50.39;100684.13;18359757;32;20116;-67
2022/06/11 06:42:44;;;;;;;6.95;3.53;;;;;;;24.98;47.66;100688.50;18410222;31;20145;-67
2022/06/11 06:52:47;;;;;;;17.67;5.60;;;;;;;25.14;48.45;100688.44;18358451;32;20380;-66
2022/06/11 07:02:53;;;;;;;5.65;3.05;;;;;;;24.56;49.36;100698.84;18352299;32;20114;-67
2022/06/11 07:12:57;;;;;;;6.90;3.70;;;;;;;25.21;47.97;100680.94;18354619;32;20102;-67
2022/06/11 07:23:04;;;;;;;6.53;3.22;;;;;;;26.52;45.03;100687.19;18357108;32;20090;-67
2022/06/11 07:33:10;;;;;;;10.65;3.30;;;;;;;28.07;38.94;100680.38;18370219;32;20491;-67
2022/06/11 07:43:15;;;;;;;5.35;2.83;;;;;;;29.09;39.17;100682.78;18361123;32;20105;-67
2022/06/11 07:53:20;;;;;;;7.00;3.00;;;;;;;29.12;39.23;100687.94;18355285;32;20112;-67
2022/06/11 08:03:27;;;;;;;6.05;2.85;;;;;;;28.33;39.40;100689.22;18357893;32;20108;-67
2022/06/11 08:13:32;;;;;;;4.97;2.67;;;;;;;29.13;41.04;100688.78;18354373;31;20077;-67
2022/06/11 08:23:39;;;;;;;6.68;3.17;;;;;;;29.66;38.44;100693.69;18407414;31;20089;-67
2022/06/11 08:33:42;;;;;;;5.85;3.10;;;;;;;27.66;42.29;100688.56;18353959;32;20112;-67
2022/06/11 08:43:58;;;;;;;7.07;3.40;;;;;;;29.03;40.16;100680.59;18353097;32;20134;-67
2022/06/11 08:54:07;;;;;;;7.05;3.10;;;;;;;29.34;42.00;100675.53;18351919;32;20101;-67
2022/06/11 09:04:28;;;;;;;6.43;3.25;;;;;;;28.78;41.37;100675.19;18404768;31;20097;-68
2022/06/11 09:15:02;;;;;;;8.18;3.25;;;;;;;29.44;38.46;100665.81;18352106;31;20085;-67
2022/06/11 09:25:18;;;;;;;8.70;3.37;;;;;;;29.09;39.16;100661.28;18403906;31;20101;-67
2022/06/11 09:35:24;;;;;;;6.37;3.20;;;;;;;28.87;40.96;100664.75;18414439;32;20743;-67
2022/06/11 09:45:33;;;;;;;5.28;2.85;;;;;;;29.29;41.68;100658.88;18397644;32;20097;-67
2022/06/11 09:55:54;;;;;;;4.72;2.53;;;;;;;29.07;40.50;100655.19;18358697;32;20445;-66
2022/06/11 10:06:02;;;;;;;4.22;2.20;;;;;;;29.31;39.99;100649.75;18413109;31;20093;-66
2022/06/11 10:16:23;;;;;;;6.32;3.05;;;;;;;29.60;39.01;100635.03;18360662;32;20097;-68
2022/06/11 10:26:32;;;;;;;4.87;2.78;;;;;;;30.56;36.74;100631.81;18358550;32;20395;-67
2022/06/11 10:36:38;;;;;;;5.78;2.80;;;;;;;29.95;38.80;100634.00;18357892;32;20136;-67
2022/06/11 10:46:42;;;;;;;5.53;2.85;;;;;;;28.94;39.53;100626.56;18358441;32;20144;-67
2022/06/11 10:56:49;;;;;;;7.40;3.90;;;;;;;29.25;39.86;100617.94;18368201;32;20119;-67
2022/06/11 11:07:15;;;;;;;5.90;2.95;;;;;;;29.20;40.51;100625.53;18398843;32;20105;-72
2022/06/11 11:17:20;;;;;;;6.55;3.30;;;;;;;30.75;34.15;100609.59;18357929;32;20113;-67
2022/06/11 11:27:30;;;;;;;4.93;2.78;;;;;;;29.92;39.63;100612.72;18357800;32;20133;-67
2022/06/11 11:37:34;;;;;;;7.60;3.30;;;;;;;29.77;41.20;100612.16;18357371;32;20105;-66
2022/06/11 11:47:40;;;;;;;6.20;3.00;;;;;;;28.74;43.05;100609.25;18368374;32;20101;-66
2022/06/11 11:57:55;;;;;;;5.95;2.90;;;;;;;29.28;43.17;100604.28;18363550;32;20096;-66
2022/06/11 12:08:00;;;;;;;4.37;2.62;;;;;;;30.21;37.87;100587.13;18356139;32;20098;-66
2022/06/11 12:18:08;;;;;;;5.43;2.53;;;;;;;30.57;39.15;100576.94;18356460;32;20111;-67
2022/06/11 12:28:14;;;;;;;3.83;2.50;;;;;;;30.64;36.64;100575.44;18407309;31;20108;-67
2022/06/11 12:38:25;;;;;;;5.75;2.50;;;;;;;30.96;37.14;100571.00;18408406;31;20509;-66
2022/06/11 12:48:39;;;;;;;4.87;2.62;;;;;;;30.90;35.08;100568.84;18351022;32;20392;-66
2022/06/11 12:59:07;;;;;;;4.55;2.58;;;;;;;31.18;38.82;100563.75;18352838;32;20432;-66
2022/06/11 13:09:25;;;;;;;4.45;2.50;;;;;;;29.99;37.37;100554.75;18354228;32;20107;-66
2022/06/11 13:19:43;;;;;;;4.75;2.58;;;;;;;30.76;35.41;100549.34;18415252;31;20101;-66
2022/06/11 13:29:57;;;;;;;3.28;2.30;;;;;;;30.93;38.15;100539.78;18362448;32;20116;-66
2022/06/11 13:40:13;;;;;;;6.75;2.60;;;;;;;31.27;36.54;100538.72;18362120;32;20179;-66
2022/06/11 13:50:53;;;;;;;4.60;2.35;;;;;;;31.03;36.49;100531.78;18361679;32;20108;-66
2022/06/11 14:01:07;;;;;;;3.58;2.28;;;;;;;30.60;36.19;100525.53;18424753;32;20121;-66
2022/06/11 14:11:21;;;;;;;6.15;2.95;;;;;;;30.56;37.48;100516.84;18424649;32;20101;-66
2022/06/11 14:21:45;;;;;;;5.68;2.70;;;;;;;30.21;38.27;100511.75;18409984;32;20120;-66
2022/06/11 14:32:00;;;;;;;3.58;2.25;;;;;;;30.62;36.97;100506.53;18402062;32;20112;-67
2022/06/11 14:42:18;;;;;;;2.67;1.90;;;;;;;30.32;37.92;100499.09;18359749;31;20089;-67
2022/06/11 14:52:40;;;;;;;4.97;2.60;;;;;;;30.53;37.89;100497.41;18359069;32;20403;-66
2022/06/11 15:03:05;;;;;;;6.65;3.00;;;;;;;30.23;37.60;100493.66;18359885;31;20097;-66
2022/06/11 15:13:31;;;;;;;3.83;2.08;;;;;;;29.44;37.53;100491.03;18360053;31;20125;-66
2022/06/11 15:23:38;;;;;;;4.57;2.40;;;;;;;29.15;38.23;100487.97;18358158;32;20503;-66
2022/06/11 15:33:44;;;;;;;4.68;2.10;;;;;;;28.70;38.18;100494.13;18357688;32;20085;-66
2022/06/11 15:43:51;;;;;;;4.05;2.45;;;;;;;28.17;40.40;100493.56;18356948;32;20093;-66
2022/06/11 16:04:31;;;;;;;4.10;2.10;;;;;;;28.16;39.63;100491.88;18357213;32;20093;-66
2022/06/11 16:14:41;;;;;;;3.40;2.20;;;;;;;27.80;39.81;100489.16;18353010;32;77023;-65
2022/06/11 16:24:48;;;;;;;4.43;2.08;;;;;;;28.31;38.82;100495.25;18355418;32;20136;-66
2022/06/11 16:34:53;;;;;;;3.30;1.92;;;;;;;28.70;37.60;100495.00;18355047;32;20149;-66
2022/06/11 16:44:57;;;;;;;3.62;1.92;;;;;;;28.15;38.03;100500.88;18409447;31;20189;-66
2022/06/11 17:05:25;;;;;;;4.20;1.90;;;;;;;28.07;39.12;100514.84;18363547;32;20097;-66
2022/06/11 17:15:34;;;;;;;3.75;1.80;;;;;;;28.25;39.22;100512.66;18362762;32;20078;-66
2022/06/11 17:25:37;;;;;;;2.95;1.70;;;;;;;27.66;40.03;100518.78;18363772;32;20098;-66
2022/06/11 17:35:42;;;;;;;3.20;1.90;;;;;;;27.54;38.56;100528.53;18361312;32;20107;-67
2022/06/11 17:45:46;;;;;;;3.28;2.00;;;;;;;27.53;37.10;100521.47;18360752;32;20459;-66
2022/06/11 17:55:50;;;;;;;4.35;1.90;;;;;;;26.72;38.97;100535.94;18359998;32;20100;-66
2022/06/11 18:05:54;;;;;;;6.22;2.30;;;;;;;26.95;37.98;100541.56;18360573;32;20097;-66
2022/06/11 18:16:01;;;;;;;4.78;2.28;;;;;;;26.98;38.92;100541.34;18360254;32;20154;-66
2022/06/11 18:26:05;;;;;;;3.72;2.00;;;;;;;26.75;39.99;100550.94;18360364;32;20088;-66
2022/06/11 18:36:09;;;;;;;4.75;2.60;;;;;;;26.22;41.84;100549.06;18359773;32;20460;-66
2022/06/11 18:46:13;;;;;;;5.65;2.87;;;;;;;26.00;41.96;100565.66;18371340;32;20124;-68
2022/06/11 18:56:18;;;;;;;3.83;1.92;;;;;;;25.41;43.97;100577.34;18360651;32;20090;-66
2022/06/11 19:06:22;;;;;;;5.18;2.40;;;;;;;24.81;46.12;100582.72;18359260;32;20353;-66
2022/06/11 19:16:27;;;;;;;4.28;2.53;;;;;;;24.53;50.45;100595.81;18358884;32;20085;-66
2022/06/11 19:26:30;;;;;;;6.37;2.80;;;;;;;23.67;54.84;100623.66;18357934;32;20161;-66
2022/06/11 19:36:38;;;;;;;4.95;2.62;;;;;;;23.13;53.92;100637.94;18358337;32;20108;-66
2022/06/11 19:46:42;;;;;;;8.07;3.42;;;;;;;23.18;54.43;100645.69;18356987;32;20105;-66
2022/06/11 19:56:46;;;;;;;5.60;2.75;;;;;;;22.63;58.19;100654.66;18356628;32;20101;-66
2022/06/11 20:06:50;;;;;;;8.32;3.85;;;;;;;22.43;58.15;100669.75;18385911;32;20105;-66
2022/06/11 20:16:55;;;;;;;6.32;3.00;;;;;;;22.11;59.77;100685.44;18358902;32;20116;-66
2022/06/11 20:26:59;;;;;;;6.53;3.47;;;;;;;22.41;60.14;100690.25;18355557;32;20104;-66
2022/06/11 20:37:07;;;;;;;7.20;3.15;;;;;;;22.03;61.10;100694.63;18354602;32;20158;-65
2022/06/11 20:47:10;;;;;;;7.57;2.90;;;;;;;21.96;61.77;100693.19;18407344;31;20347;-66
2022/06/11 20:57:16;;;;;;;6.18;2.90;;;;;;;21.73;61.28;100703.06;18353793;32;20095;-65
2022/06/11 21:17:42;;;;;;;8.67;3.30;;;;;;;21.47;62.86;100712.09;18416427;32;20373;-66
2022/06/11 21:27:48;;;;;;;5.65;2.80;;;;;;;21.62;62.05;100723.84;18416224;32;20103;-65
2022/06/11 21:37:52;;;;;;;6.95;2.97;;;;;;;21.27;62.40;100727.09;18420908;32;20089;-66
2022/06/11 21:47:55;;;;;;;6.28;2.80;;;;;;;21.51;62.12;100731.44;18407153;32;20103;-66
2022/06/11 21:58:00;;;;;;;6.15;2.90;;;;;;;21.59;60.64;100748.78;18425289;32;20092;-66
2022/06/11 22:08:04;;;;;;;8.73;3.03;;;;;;;21.71;59.77;100757.19;18424872;32;20156;-66
2022/06/11 22:18:08;;;;;;;6.82;3.08;;;;;;;21.45;61.88;100760.00;18424351;32;20137;-66
2022/06/11 22:28:12;;;;;;;7.45;3.20;;;;;;;21.21;63.38;100768.03;18477401;31;20141;-66
2022/06/11 22:38:17;;;;;;;6.10;3.00;;;;;;;21.31;61.84;100770.31;18423770;32;20082;-66
2022/06/11 22:48:20;;;;;;;6.47;3.53;;;;;;;21.05;62.13;100767.81;18422703;32;20101;-66
2022/06/11 22:58:28;;;;;;;4.43;2.40;;;;;;;21.71;57.12;100779.28;18423058;32;20106;-66
2022/06/11 23:08:31;;;;;;;6.05;2.78;;;;;;;21.89;55.99;100780.28;18475221;31;20424;-66
2022/06/11 23:18:36;;;;;;;5.00;2.80;;;;;;;21.65;56.90;100776.00;18475533;31;20117;-66
2022/06/11 23:28:39;;;;;;;5.87;3.08;;;;;;;21.11;60.90;100792.38;18475168;31;20169;-66
2022/06/11 23:38:44;;;;;;;6.90;3.20;;;;;;;20.60;63.64;100784.56;18421471;32;20089;-66
2022/06/11 23:48:49;;;;;;;5.75;3.28;;;;;;;20.33;64.41;100801.47;18421249;32;20096;-66
2022/06/11 23:58:54;;;;;;;7.20;3.45;;;;;;;20.38;63.43;100801.28;18419299;32;20096;-66
